sensor_id;sensor_type;location;lat;lon;timestamp;temperature;humidity
18575;DHT22;9417;16.484;102.872;2024-02-26T00:03:12;23.60;82.20
18575;DHT22;9417;16.484;102.872;2024-02-26T00:07:14;23.80;82.50
18575;DHT22;9417;16.484;102.872;2024-02-26T00:11:19;23.80;82.90
18575;DHT22;9417;16.484;102.872;2024-02-26T00:20:11;24.00;81.50
18575;DHT22;9417;16.484;102.872;2024-02-26T00:24:15;24.10;82.10
18575;DHT22;9417;16.484;102.872;2024-02-26T00:28:29;24.00;81.30
18575;DHT22;9417;16.484;102.872;2024-02-26T00:32:43;24.00;81.10
18575;DHT22;9417;16.484;102.872;2024-02-26T00:37:03;24.10;79.20
18575;DHT22;9417;16.484;102.872;2024-02-26T00:41:18;24.30;76.10
18575;DHT22;9417;16.484;102.872;2024-02-26T00:45:41;24.40;74.60
18575;DHT22;9417;16.484;102.872;2024-02-26T00:50:08;24.50;75.70
18575;DHT22;9417;16.484;102.872;2024-02-26T00:54:16;24.60;75.20
18575;DHT22;9417;16.484;102.872;2024-02-26T00:58:21;24.60;74.60
18575;DHT22;9417;16.484;102.872;2024-02-26T01:02:49;24.70;74.80
18575;DHT22;9417;16.484;102.872;2024-02-26T01:06:56;24.90;73.80
18575;DHT22;9417;16.484;102.872;2024-02-26T01:11:14;24.90;72.90
18575;DHT22;9417;16.484;102.872;2024-02-26T01:15:27;24.90;73.20
18575;DHT22;9417;16.484;102.872;2024-02-26T01:19:58;25.10;72.80
18575;DHT22;9417;16.484;102.872;2024-02-26T01:25:12;25.30;71.80
18575;DHT22;9417;16.484;102.872;2024-02-26T01:34:39;25.40;71.00
18575;DHT22;9417;16.484;102.872;2024-02-26T01:44:52;25.80;70.40
18575;DHT22;9417;16.484;102.872;2024-02-26T01:54:10;26.20;69.00
18575;DHT22;9417;16.484;102.872;2024-02-26T01:58:28;26.40;68.10
18575;DHT22;9417;16.484;102.872;2024-02-26T02:07:58;26.50;67.80
18575;DHT22;9417;16.484;102.872;2024-02-26T02:18:16;26.80;66.30
18575;DHT22;9417;16.484;102.872;2024-02-26T02:28:44;26.80;66.10
18575;DHT22;9417;16.484;102.872;2024-02-26T03:09:28;27.80;64.20
18575;DHT22;9417;16.484;102.872;2024-02-26T03:14:12;28.00;63.50
18575;DHT22;9417;16.484;102.872;2024-02-26T03:28:03;28.30;62.90
18575;DHT22;9417;16.484;102.872;2024-02-26T03:32:23;28.50;62.60
18575;DHT22;9417;16.484;102.872;2024-02-26T03:36:52;28.30;62.00
18575;DHT22;9417;16.484;102.872;2024-02-26T03:41:03;28.30;63.90
18575;DHT22;9417;16.484;102.872;2024-02-26T03:45:14;28.40;64.50
18575;DHT22;9417;16.484;102.872;2024-02-26T03:49:39;28.50;63.20
18575;DHT22;9417;16.484;102.872;2024-02-26T03:54:06;28.80;63.00
18575;DHT22;9417;16.484;102.872;2024-02-26T03:58:29;28.90;62.10
18575;DHT22;9417;16.484;102.872;2024-02-26T04:03:02;29.10;59.70
18575;DHT22;9417;16.484;102.872;2024-02-26T04:07:10;29.10;59.80
18575;DHT22;9417;16.484;102.872;2024-02-26T04:11:35;29.10;59.60
18575;DHT22;9417;16.484;102.872;2024-02-26T04:21:03;29.60;60.60
18575;DHT22;9417;16.484;102.872;2024-02-26T04:25:25;29.90;59.90
18575;DHT22;9417;16.484;102.872;2024-02-26T04:34:50;30.20;58.70
18575;DHT22;9417;16.484;102.872;2024-02-26T04:39:35;30.30;58.30
18575;DHT22;9417;16.484;102.872;2024-02-26T04:44:40;30.50;58.60
18575;DHT22;9417;16.484;102.872;2024-02-26T04:53:41;30.70;58.20
18575;DHT22;9417;16.484;102.872;2024-02-26T04:58:32;30.80;57.70
18575;DHT22;9417;16.484;102.872;2024-02-26T05:02:52;31.00;57.30
18575;DHT22;9417;16.484;102.872;2024-02-26T05:07:15;31.00;56.60
18575;DHT22;9417;16.484;102.872;2024-02-26T05:12:16;31.00;56.40
18575;DHT22;9417;16.484;102.872;2024-02-26T05:21:45;31.40;57.30
18575;DHT22;9417;16.484;102.872;2024-02-26T05:26:49;31.60;56.80
18575;DHT22;9417;16.484;102.872;2024-02-26T05:31:55;31.70;54.90
18575;DHT22;9417;16.484;102.872;2024-02-26T05:35:59;31.60;55.60
18575;DHT22;9417;16.484;102.872;2024-02-26T05:40:53;31.80;55.50
18575;DHT22;9417;16.484;102.872;2024-02-26T05:56:17;32.10;55.00
18575;DHT22;9417;16.484;102.872;2024-02-26T06:01:15;32.20;53.50
18575;DHT22;9417;16.484;102.872;2024-02-26T06:15:55;32.50;53.20
18575;DHT22;9417;16.484;102.872;2024-02-26T06:20:00;32.60;53.50
18575;DHT22;9417;16.484;102.872;2024-02-26T06:24:02;32.60;53.50
18575;DHT22;9417;16.484;102.872;2024-02-26T06:28:07;32.70;54.00
18575;DHT22;9417;16.484;102.872;2024-02-26T06:32:24;32.80;53.00
18575;DHT22;9417;16.484;102.872;2024-02-26T06:36:34;32.70;53.40
18575;DHT22;9417;16.484;102.872;2024-02-26T06:40:46;32.80;53.20
18575;DHT22;9417;16.484;102.872;2024-02-26T06:45:04;32.80;53.80
18575;DHT22;9417;16.484;102.872;2024-02-26T06:49:08;32.80;53.10
18575;DHT22;9417;16.484;102.872;2024-02-26T06:53:19;32.90;54.60
18575;DHT22;9417;16.484;102.872;2024-02-26T06:57:27;33.00;53.00
18575;DHT22;9417;16.484;102.872;2024-02-26T07:01:46;32.90;52.80
18575;DHT22;9417;16.484;102.872;2024-02-26T07:05:49;32.90;52.90
18575;DHT22;9417;16.484;102.872;2024-02-26T07:10:00;33.00;53.30
18575;DHT22;9417;16.484;102.872;2024-02-26T07:14:08;33.10;52.70
18575;DHT22;9417;16.484;102.872;2024-02-26T07:18:15;33.10;52.80
18575;DHT22;9417;16.484;102.872;2024-02-26T07:27:11;32.70;54.40
18575;DHT22;9417;16.484;102.872;2024-02-26T07:41:38;32.80;53.20
18575;DHT22;9417;16.484;102.872;2024-02-26T07:46:00;32.70;54.00
18575;DHT22;9417;16.484;102.872;2024-02-26T07:50:14;32.70;53.00
18575;DHT22;9417;16.484;102.872;2024-02-26T08:09:58;33.00;53.10
18575;DHT22;9417;16.484;102.872;2024-02-26T08:23:53;33.10;51.70
18575;DHT22;9417;16.484;102.872;2024-02-26T08:28:18;33.10;51.60
18575;DHT22;9417;16.484;102.872;2024-02-26T08:32:47;33.10;52.10
18575;DHT22;9417;16.484;102.872;2024-02-26T08:37:04;33.20;51.90
18575;DHT22;9417;16.484;102.872;2024-02-26T08:41:09;33.30;51.70
18575;DHT22;9417;16.484;102.872;2024-02-26T08:45:15;33.30;51.60
18575;DHT22;9417;16.484;102.872;2024-02-26T08:54:43;33.20;51.40
18575;DHT22;9417;16.484;102.872;2024-02-26T08:59:22;33.20;51.00
18575;DHT22;9417;16.484;102.872;2024-02-26T09:03:27;33.10;50.70
18575;DHT22;9417;16.484;102.872;2024-02-26T09:08:13;33.10;51.50
18575;DHT22;9417;16.484;102.872;2024-02-26T09:13:10;33.20;50.90
18575;DHT22;9417;16.484;102.872;2024-02-26T09:17:15;33.10;51.20
18575;DHT22;9417;16.484;102.872;2024-02-26T09:22:18;32.90;51.80
18575;DHT22;9417;16.484;102.872;2024-02-26T09:46:12;32.80;53.10
18575;DHT22;9417;16.484;102.872;2024-02-26T09:50:22;32.70;53.70
18575;DHT22;9417;16.484;102.872;2024-02-26T09:55:20;32.60;53.60
18575;DHT22;9417;16.484;102.872;2024-02-26T09:59:23;32.60;53.80
18575;DHT22;9417;16.484;102.872;2024-02-26T10:04:26;32.50;53.90
18575;DHT22;9417;16.484;102.872;2024-02-26T10:08:52;32.50;54.00
18575;DHT22;9417;16.484;102.872;2024-02-26T10:13:04;32.40;54.10
18575;DHT22;9417;16.484;102.872;2024-02-26T10:17:23;32.30;54.30
18575;DHT22;9417;16.484;102.872;2024-02-26T10:26:33;32.30;55.10
18575;DHT22;9417;16.484;102.872;2024-02-26T10:30:52;32.10;55.40
18575;DHT22;9417;16.484;102.872;2024-02-26T10:34:57;32.10;56.10
18575;DHT22;9417;16.484;102.872;2024-02-26T10:39:07;32.00;56.30
18575;DHT22;9417;16.484;102.872;2024-02-26T10:43:32;32.00;56.30
18575;DHT22;9417;16.484;102.872;2024-02-26T10:48:53;31.90;57.00
18575;DHT22;9417;16.484;102.872;2024-02-26T10:53:29;31.80;57.30
18575;DHT22;9417;16.484;102.872;2024-02-26T10:58:08;31.70;58.40
18575;DHT22;9417;16.484;102.872;2024-02-26T11:02:10;31.60;59.10
18575;DHT22;9417;16.484;102.872;2024-02-26T11:06:14;31.50;59.00
18575;DHT22;9417;16.484;102.872;2024-02-26T11:10:19;31.30;60.10
18575;DHT22;9417;16.484;102.872;2024-02-26T11:14:22;31.10;61.20
18575;DHT22;9417;16.484;102.872;2024-02-26T11:18:30;31.00;62.30
18575;DHT22;9417;16.484;102.872;2024-02-26T11:22:36;30.90;62.10
18575;DHT22;9417;16.484;102.872;2024-02-26T11:27:04;30.90;62.90
18575;DHT22;9417;16.484;102.872;2024-02-26T11:31:07;30.80;64.10
18575;DHT22;9417;16.484;102.872;2024-02-26T11:35:21;30.60;64.40
18575;DHT22;9417;16.484;102.872;2024-02-26T11:39:30;30.50;66.00
18575;DHT22;9417;16.484;102.872;2024-02-26T11:44:01;30.40;66.10
18575;DHT22;9417;16.484;102.872;2024-02-26T11:48:36;30.30;66.20
18575;DHT22;9417;16.484;102.872;2024-02-26T11:52:39;30.20;67.50
18575;DHT22;9417;16.484;102.872;2024-02-26T12:06:27;29.80;68.60
18575;DHT22;9417;16.484;102.872;2024-02-26T12:10:56;29.70;68.50
18575;DHT22;9417;16.484;102.872;2024-02-26T12:15:11;29.70;68.70
18575;DHT22;9417;16.484;102.872;2024-02-26T12:19:19;29.60;69.20
18575;DHT22;9417;16.484;102.872;2024-02-26T12:23:22;29.50;69.90
18575;DHT22;9417;16.484;102.872;2024-02-26T12:28:27;29.40;70.70
18575;DHT22;9417;16.484;102.872;2024-02-26T12:32:46;29.30;71.00
18575;DHT22;9417;16.484;102.872;2024-02-26T12:37:17;29.20;71.30
18575;DHT22;9417;16.484;102.872;2024-02-26T12:41:22;29.10;72.20
18575;DHT22;9417;16.484;102.872;2024-02-26T12:45:30;29.00;73.70
18575;DHT22;9417;16.484;102.872;2024-02-26T12:49:46;29.00;74.10
18575;DHT22;9417;16.484;102.872;2024-02-26T12:53:49;29.00;74.40
18575;DHT22;9417;16.484;102.872;2024-02-26T12:58:05;28.90;74.70
18575;DHT22;9417;16.484;102.872;2024-02-26T13:02:25;28.90;75.10
18575;DHT22;9417;16.484;102.872;2024-02-26T13:06:37;28.90;74.70
18575;DHT22;9417;16.484;102.872;2024-02-26T13:11:09;28.90;74.70
18575;DHT22;9417;16.484;102.872;2024-02-26T13:15:21;28.90;74.80
18575;DHT22;9417;16.484;102.872;2024-02-26T13:19:50;28.80;74.00
18575;DHT22;9417;16.484;102.872;2024-02-26T13:23:56;28.90;73.90
18575;DHT22;9417;16.484;102.872;2024-02-26T13:28:22;28.80;74.30
18575;DHT22;9417;16.484;102.872;2024-02-26T13:37:47;28.80;74.10
18575;DHT22;9417;16.484;102.872;2024-02-26T13:42:19;28.80;74.70
18575;DHT22;9417;16.484;102.872;2024-02-26T13:46:27;28.70;75.10
18575;DHT22;9417;16.484;102.872;2024-02-26T13:50:39;28.70;75.10
18575;DHT22;9417;16.484;102.872;2024-02-26T13:54:53;28.60;75.60
18575;DHT22;9417;16.484;102.872;2024-02-26T13:58:59;28.50;76.60
18575;DHT22;9417;16.484;102.872;2024-02-26T14:04:13;28.30;77.20
18575;DHT22;9417;16.484;102.872;2024-02-26T14:08:17;28.30;77.60
18575;DHT22;9417;16.484;102.872;2024-02-26T14:12:59;28.20;76.90
18575;DHT22;9417;16.484;102.872;2024-02-26T14:22:22;28.20;77.10
18575;DHT22;9417;16.484;102.872;2024-02-26T14:26:25;28.00;76.40
18575;DHT22;9417;16.484;102.872;2024-02-26T14:31:03;28.00;77.50
18575;DHT22;9417;16.484;102.872;2024-02-26T14:35:30;28.00;78.30
18575;DHT22;9417;16.484;102.872;2024-02-26T14:40:22;27.80;78.70
18575;DHT22;9417;16.484;102.872;2024-02-26T14:50:02;27.70;80.00
18575;DHT22;9417;16.484;102.872;2024-02-26T15:04:03;27.60;79.80
18575;DHT22;9417;16.484;102.872;2024-02-26T15:08:06;27.60;80.00
18575;DHT22;9417;16.484;102.872;2024-02-26T15:47:45;27.20;82.30
18575;DHT22;9417;16.484;102.872;2024-02-26T15:52:01;27.10;83.20
18575;DHT22;9417;16.484;102.872;2024-02-26T15:56:12;27.00;83.70
18575;DHT22;9417;16.484;102.872;2024-02-26T16:00:38;26.90;83.60
18575;DHT22;9417;16.484;102.872;2024-02-26T16:05:09;26.80;83.80
18575;DHT22;9417;16.484;102.872;2024-02-26T16:09:40;26.90;84.20
18575;DHT22;9417;16.484;102.872;2024-02-26T16:13:55;26.90;83.70
18575;DHT22;9417;16.484;102.872;2024-02-26T16:23:26;27.00;83.80
18575;DHT22;9417;16.484;102.872;2024-02-26T16:27:31;26.90;82.90
18575;DHT22;9417;16.484;102.872;2024-02-26T16:31:34;26.80;83.70
18575;DHT22;9417;16.484;102.872;2024-02-26T16:36:02;26.70;84.00
18575;DHT22;9417;16.484;102.872;2024-02-26T16:40:36;26.80;84.30
18575;DHT22;9417;16.484;102.872;2024-02-26T16:45:31;26.80;84.50
18575;DHT22;9417;16.484;102.872;2024-02-26T16:49:51;26.70;84.60
18575;DHT22;9417;16.484;102.872;2024-02-26T16:54:01;26.70;84.80
18575;DHT22;9417;16.484;102.872;2024-02-26T16:58:15;26.60;85.30
18575;DHT22;9417;16.484;102.872;2024-02-26T17:03:08;26.50;85.00
18575;DHT22;9417;16.484;102.872;2024-02-26T17:07:11;26.40;85.40
18575;DHT22;9417;16.484;102.872;2024-02-26T17:11:43;26.40;85.40
18575;DHT22;9417;16.484;102.872;2024-02-26T17:16:26;26.50;85.20
18575;DHT22;9417;16.484;102.872;2024-02-26T17:20:37;26.50;86.20
18575;DHT22;9417;16.484;102.872;2024-02-26T17:35:30;26.50;87.40
18575;DHT22;9417;16.484;102.872;2024-02-26T17:44:38;26.50;83.00
18575;DHT22;9417;16.484;102.872;2024-02-26T17:49:20;26.50;80.70
18575;DHT22;9417;16.484;102.872;2024-02-26T18:30:31;26.20;78.00
18575;DHT22;9417;16.484;102.872;2024-02-26T19:01:36;25.90;78.70
18575;DHT22;9417;16.484;102.872;2024-02-26T19:31:52;25.60;78.10
18575;DHT22;9417;16.484;102.872;2024-02-26T19:41:07;25.50;77.80
18575;DHT22;9417;16.484;102.872;2024-02-26T20:00:36;25.30;80.50
18575;DHT22;9417;16.484;102.872;2024-02-26T20:19:56;25.00;80.10
18575;DHT22;9417;16.484;102.872;2024-02-26T20:24:25;25.00;78.60
18575;DHT22;9417;16.484;102.872;2024-02-26T20:59:37;24.70;78.20
18575;DHT22;9417;16.484;102.872;2024-02-26T21:29:07;24.50;77.60
18575;DHT22;9417;16.484;102.872;2024-02-26T22:22:01;24.20;74.70
18575;DHT22;9417;16.484;102.872;2024-02-26T23:07:09;23.70;77.40
18575;DHT22;9417;16.484;102.872;2024-02-26T23:43:18;23.40;77.30
18575;DHT22;9417;16.484;102.872;2024-02-26T23:57:40;23.40;78.10
